Time;durP1;ratioP1;P1;durP2;ratioP2;P2;SDS_P1;SDS_P2;PMS_P1;PMS_P2;Temp;Humidity;BMP_temperature;BMP_pressure;BME280_temperature;BME280_humidity;BME280_pressure;Samples;Min_cycle;Max_cycle;Signal;HPM_P1;HPM_P2
2023/10/09 00:02:12;;;;;;;8.73;2.63;;;17.90;99.60;;;;;;4996014;28;20121;-71
2023/10/09 00:04:46;;;;;;;9.55;2.53;;;18.00;99.50;;;;;;4992098;28;20040;-71
2023/10/09 00:07:12;;;;;;;;;;;17.90;99.60;;;;;;4991781;28;20114;-70
2023/10/09 00:09:47;;;;;;;13.77;3.53;;;17.80;99.90;;;;;;4995964;28;20000;-72
2023/10/09 00:12:22;;;;;;;11.45;3.30;;;17.60;99.90;;;;;;4992674;28;20041;-71
2023/10/09 00:14:50;;;;;;;10.43;3.53;;;17.50;99.90;;;;;;4992128;28;20022;-72
2023/10/09 00:17:17;;;;;;;11.60;3.55;;;17.50;99.90;;;;;;4994763;28;20522;-72
2023/10/09 00:19:54;;;;;;;11.15;3.15;;;17.40;99.90;;;;;;4996085;28;20034;-71
2023/10/09 00:22:28;;;;;;;10.35;2.53;;;17.20;99.90;;;;;;4985743;28;20397;-72
2023/10/09 00:25:21;;;;;;;11.38;3.10;;;17.50;99.90;;;;;;4993118;28;20034;-71
2023/10/09 00:27:47;;;;;;;13.05;3.63;;;17.50;99.90;;;;;;4991882;28;20018;-71
2023/10/09 00:30:21;;;;;;;12.75;3.60;;;17.50;99.90;;;;;;4995713;28;20061;-71
2023/10/09 00:33:01;;;;;;;12.98;3.15;;;17.60;99.90;;;;;;4998682;28;20104;-70
2023/10/09 00:35:36;;;;;;;8.45;2.58;;;17.70;99.90;;;;;;5000964;28;20037;-72
2023/10/09 00:38:33;;;;;;;15.60;2.88;;;17.90;99.90;;;;;;4995729;28;20026;-72
2023/10/09 00:43:35;;;;;;;19.70;4.22;;;17.70;99.90;;;;;;4993218;28;20038;-72
2023/10/09 00:48:52;;;;;;;11.90;2.95;;;17.80;99.60;;;;;;4993198;28;20034;-71
2023/10/09 00:51:18;;;;;;;10.32;3.10;;;17.70;99.90;;;;;;4998028;28;20034;-71
2023/10/09 00:53:59;;;;;;;11.95;2.97;;;17.60;99.90;;;;;;5004450;28;20088;-72
2023/10/09 00:58:59;;;;;;;13.60;3.13;;;17.40;99.90;;;;;;4996240;28;20038;-72
2023/10/09 01:01:34;;;;;;;13.98;3.20;;;17.40;99.90;;;;;;5006722;28;20072;-72
2023/10/09 01:04:06;;;;;;;15.93;4.35;;;17.40;99.90;;;;;;4996395;28;20023;-71
2023/10/09 01:06:34;;;;;;;13.45;3.05;;;17.50;99.90;;;;;;4996263;28;20088;-71
2023/10/09 01:09:10;;;;;;;12.93;3.53;;;17.50;99.90;;;;;;4993954;28;20448;-71
2023/10/09 01:11:47;;;;;;;15.02;3.88;;;17.60;99.90;;;;;;4994391;28;20029;-71
2023/10/09 01:14:12;;;;;;;16.50;3.45;;;17.40;99.90;;;;;;4998161;28;20030;-72
2023/10/09 01:16:42;;;;;;;16.08;3.70;;;17.50;99.90;;;;;;4994893;28;20038;-73
2023/10/09 01:19:23;;;;;;;14.32;3.55;;;17.50;99.90;;;;;;4982054;28;20045;-72
2023/10/09 01:21:53;;;;;;;18.27;3.53;;;17.60;99.90;;;;;;4990317;28;20112;-72
2023/10/09 01:24:19;;;;;;;13.02;3.38;;;17.50;99.90;;;;;;4993267;28;20061;-71
2023/10/09 01:26:46;;;;;;;10.75;3.47;;;17.50;99.90;;;;;;4989888;28;20105;-72
2023/10/09 01:29:19;;;;;;;19.60;3.38;;;17.50;99.90;;;;;;4991878;28;20037;-73
2023/10/09 01:31:55;;;;;;;15.60;2.75;;;17.60;99.90;;;;;;4991472;28;20282;-72
2023/10/09 01:34:44;;;;;;;16.30;3.10;;;17.50;99.90;;;;;;4999600;28;20026;-72
2023/10/09 01:37:28;;;;;;;14.77;3.20;;;17.50;99.90;;;;;;4991484;28;20046;-71
2023/10/09 01:39:58;;;;;;;18.65;4.50;;;17.40;99.90;;;;;;4994104;28;20069;-71
2023/10/09 01:42:34;;;;;;;11.60;3.10;;;17.60;99.90;;;;;;4994369;28;20037;-72
2023/10/09 01:45:26;;;;;;;12.70;3.15;;;17.60;99.90;;;;;;4991928;28;20038;-71
2023/10/09 01:47:57;;;;;;;14.10;3.97;;;17.60;99.90;;;;;;4993655;28;20077;-71
2023/10/09 01:50:27;;;;;;;11.00;3.55;;;17.70;99.60;;;;;;4996489;28;20022;-72
2023/10/09 01:52:52;;;;;;;20.67;3.45;;;17.70;99.60;;;;;;4990077;28;20473;-71
2023/10/09 01:55:28;;;;;;;14.32;2.95;;;17.70;99.50;;;;;;4994587;28;20064;-72
2023/10/09 01:57:57;;;;;;;7.93;2.70;;;17.80;99.40;;;;;;4990993;28;20061;-72
2023/10/09 02:00:28;;;;;;;15.15;3.25;;;17.60;99.80;;;;;;4991448;28;20054;-72
2023/10/09 02:02:54;;;;;;;15.20;3.03;;;17.50;99.80;;;;;;4986895;28;20045;-71
2023/10/09 02:07:51;;;;;;;15.02;3.30;;;17.20;99.90;;;;;;4991305;28;20034;-71
2023/10/09 02:10:31;;;;;;;11.15;3.97;;;17.10;99.90;;;;;;4999711;28;20543;-71
2023/10/09 02:13:06;;;;;;;14.88;3.30;;;17.30;99.90;;;;;;4990623;28;20030;-71
2023/10/09 02:18:39;;;;;;;11.82;2.67;;;17.30;99.80;;;;;;4991889;28;20045;-71
2023/10/09 02:26:32;;;;;;;11.40;2.80;;;17.10;99.90;;;;;;4993750;28;20037;-71
2023/10/09 02:29:15;;;;;;;14.52;3.45;;;17.10;99.90;;;;;;4992344;28;20038;-72
2023/10/09 02:31:47;;;;;;;24.90;4.38;;;17.00;99.90;;;;;;4992094;28;20022;-72
2023/10/09 02:34:15;;;;;;;16.95;3.47;;;16.90;99.90;;;;;;4994158;28;20490;-72
2023/10/09 02:36:49;;;;;;;11.52;3.60;;;17.10;99.90;;;;;;4992736;28;20539;-73
2023/10/09 02:39:48;;;;;;;18.60;4.35;;;16.90;99.90;;;;;;4990256;28;20484;-73
2023/10/09 02:42:26;;;;;;;15.20;4.05;;;16.80;99.90;;;;;;4995803;28;20050;-73
2023/10/09 02:44:52;;;;;;;14.80;3.33;;;16.50;99.90;;;;;;4993090;28;20030;-72
2023/10/09 02:47:29;;;;;;;9.90;2.63;;;16.50;99.90;;;;;;4993699;28;20106;-72
2023/10/09 02:50:00;;;;;;;14.43;3.65;;;16.60;99.90;;;;;;4994866;28;20194;-73
2023/10/09 02:52:32;;;;;;;12.95;3.13;;;16.70;99.90;;;;;;4993647;28;20080;-72
2023/10/09 02:55:07;;;;;;;10.25;3.50;;;16.80;99.90;;;;;;4997094;28;20559;-72
2023/10/09 02:57:41;;;;;;;11.18;3.70;;;16.80;99.90;;;;;;4998820;28;20022;-72
2023/10/09 03:00:29;;;;;;;7.72;2.35;;;16.90;99.90;;;;;;4993631;28;23027;-73
2023/10/09 03:02:58;;;;;;;13.27;3.05;;;16.80;99.90;;;;;;4992356;28;20041;-72
2023/10/09 03:05:27;;;;;;;13.18;3.47;;;16.70;99.90;;;;;;4991863;28;20121;-72
2023/10/09 03:07:53;;;;;;;16.65;3.75;;;16.90;99.90;;;;;;4994172;28;20033;-71
2023/10/09 03:10:22;;;;;;;23.48;4.03;;;16.90;99.80;;;;;;4988207;28;20035;-72
2023/10/09 03:12:52;;;;;;;14.10;2.97;;;16.90;99.80;;;;;;4987845;28;20030;-71
2023/10/09 03:15:20;;;;;;;13.80;2.85;;;16.90;99.80;;;;;;4993794;28;20034;-72
2023/10/09 03:17:47;;;;;;;12.98;3.08;;;17.00;99.70;;;;;;4986891;28;20030;-71
2023/10/09 03:20:13;;;;;;;9.80;3.20;;;16.70;99.90;;;;;;4991466;28;20029;-71
2023/10/09 03:22:40;;;;;;;14.05;3.92;;;16.70;99.90;;;;;;4986467;28;20457;-72
2023/10/09 03:25:11;;;;;;;11.10;3.15;;;16.70;99.90;;;;;;4988449;28;20034;-71
2023/10/09 03:27:45;;;;;;;15.30;3.58;;;16.80;99.80;;;;;;4993347;28;20049;-73
2023/10/09 03:30:22;;;;;;;15.00;4.05;;;16.80;99.90;;;;;;4990231;28;20054;-71
2023/10/09 03:32:51;;;;;;;15.50;3.63;;;16.90;99.80;;;;;;4991032;28;20489;-72
2023/10/09 03:35:34;;;;;;;16.17;3.13;;;16.90;99.90;;;;;;4987914;28;20027;-71
2023/10/09 03:38:09;;;;;;;13.40;4.00;;;16.80;99.90;;;;;;4993891;28;20064;-71
2023/10/09 03:40:38;;;;;;;9.95;2.83;;;16.90;99.70;;;;;;4996737;28;20029;-72
2023/10/09 03:43:04;;;;;;;22.15;3.58;;;16.80;99.90;;;;;;4988493;28;20049;-71
2023/10/09 03:45:35;;;;;;;13.23;4.25;;;16.50;99.90;;;;;;4992457;28;20089;-72
2023/10/09 03:48:04;;;;;;;10.50;3.08;;;16.30;99.90;;;;;;4993268;28;20027;-71
2023/10/09 03:50:35;;;;;;;16.65;4.53;;;16.40;99.90;;;;;;4990571;28;20030;-71
2023/10/09 03:53:06;;;;;;;9.82;3.17;;;16.50;99.90;;;;;;4996984;28;20066;-71
2023/10/09 03:55:32;;;;;;;14.10;3.58;;;16.50;99.90;;;;;;4991408;28;20030;-71
2023/10/09 03:57:59;;;;;;;9.10;3.67;;;16.50;99.90;;;;;;4992911;28;20462;-71
2023/10/09 04:00:27;;;;;;;10.10;3.08;;;16.30;99.90;;;;;;4993078;28;20042;-71
2023/10/09 04:02:57;;;;;;;16.08;3.20;;;16.10;99.90;;;;;;4986553;28;20497;-74
2023/10/09 04:05:24;;;;;;;11.98;2.97;;;16.00;99.90;;;;;;4988239;28;20034;-71
2023/10/09 04:07:53;;;;;;;12.18;3.60;;;16.00;99.90;;;;;;4986967;28;20026;-71
2023/10/09 04:13:08;;;;;;;11.55;3.22;;;16.20;99.90;;;;;;4984369;28;20137;-72
2023/10/09 04:15:35;;;;;;;10.52;3.10;;;16.30;99.90;;;;;;4995708;28;20038;-71
2023/10/09 04:18:02;;;;;;;11.25;3.42;;;16.50;99.90;;;;;;4994210;28;20046;-71
2023/10/09 04:23:04;;;;;;;13.73;3.53;;;16.40;99.90;;;;;;4986353;28;20066;-71
2023/10/09 04:25:40;;;;;;;16.40;3.58;;;16.20;99.90;;;;;;4990564;28;20402;-71
2023/10/09 04:28:18;;;;;;;10.55;3.33;;;16.20;99.90;;;;;;4988391;28;20061;-72
2023/10/09 04:30:55;;;;;;;9.98;2.97;;;16.30;99.90;;;;;;4989594;28;20028;-72
2023/10/09 04:33:28;;;;;;;11.70;4.32;;;16.40;99.90;;;;;;4986975;28;20026;-71
2023/10/09 04:42:18;;;;;;;12.00;3.97;;;16.40;99.90;;;;;;4985506;28;20045;-71
2023/10/09 04:44:19;;;;;;;15.35;3.10;;;16.30;99.90;;;;;;4992635;28;20707;-71
2023/10/09 04:47:18;;;;;;;12.27;3.78;;;16.30;99.90;;;;;;4986037;28;20031;-71
2023/10/09 04:52:51;;;;;;;14.55;3.30;;;16.20;99.90;;;;;;4988615;28;20052;-71
2023/10/09 04:55:25;;;;;;;11.55;2.42;;;16.10;99.90;;;;;;4985265;28;20109;-73
2023/10/09 04:58:01;;;;;;;12.25;2.92;;;16.10;99.90;;;;;;4990619;28;20040;-71
2023/10/09 05:03:10;;;;;;;16.17;3.25;;;16.10;99.90;;;;;;4989142;28;20038;-71
2023/10/09 05:11:34;;;;;;;9.65;2.55;;;15.70;99.90;;;;;;4986919;28;20035;-72
2023/10/09 05:16:28;;;;;;;13.32;4.38;;;15.50;99.90;;;;;;4985823;28;20064;-71
2023/10/09 05:18:56;;;;;;;12.02;3.05;;;15.50;99.90;;;;;;4989411;28;20033;-72
2023/10/09 05:37:32;;;;;;;16.20;3.10;;;15.80;99.90;;;;;;4983653;28;20428;-72
2023/10/09 06:04:19;;;;;;;17.02;3.08;;;16.30;99.90;;;;;;4982887;28;20054;-72
2023/10/09 06:06:45;;;;;;;16.10;3.42;;;16.30;99.90;;;;;;4992979;28;20030;-72
2023/10/09 06:11:49;;;;;;;11.48;2.97;;;16.30;99.90;;;;;;4982914;28;20041;-72
2023/10/09 06:14:25;;;;;;;11.07;3.28;;;16.10;99.90;;;;;;4987203;28;20029;-72
2023/10/09 06:19:43;;;;;;;10.60;2.72;;;16.20;99.90;;;;;;4996578;28;20069;-72
2023/10/09 06:22:56;;;;;;;12.18;3.28;;;16.00;99.90;;;;;;4994582;28;20743;-72
2023/10/09 06:24:57;;;;;;;15.32;3.58;;;16.10;99.90;;;;;;4986137;28;20057;-72
2023/10/09 06:35:30;;;;;;;16.13;4.10;;;16.10;99.90;;;;;;4984792;28;20046;-71
2023/10/09 06:46:43;;;;;;;24.27;4.68;;;16.30;99.90;;;;;;4994478;28;20048;-72
2023/10/09 06:48:45;;;;;;;12.68;3.03;;;16.30;99.90;;;;;;4990589;28;20089;-73
2023/10/09 06:56:24;;;;;;;11.30;3.17;;;16.30;99.90;;;;;;4980607;28;20986;-71
2023/10/09 06:58:54;;;;;;;27.80;4.18;;;16.10;99.90;;;;;;4983376;28;20473;-72
2023/10/09 07:04:45;;;;;;;11.07;3.42;;;16.10;99.90;;;;;;4983041;28;20129;-72
2023/10/09 07:07:20;;;;;;;13.23;3.83;;;16.00;99.90;;;;;;4985583;28;20040;-72
2023/10/09 07:12:34;;;;;;;19.13;3.95;;;16.00;99.90;;;;;;4990097;28;20061;-72
2023/10/09 07:16:23;;;;;;;11.15;2.78;;;16.00;99.90;;;;;;4983334;28;20390;-72
2023/10/09 07:17:52;;;;;;;13.40;3.15;;;16.10;99.90;;;;;;4983577;28;20046;-72
2023/10/09 07:20:36;;;;;;;10.05;3.08;;;16.10;99.90;;;;;;4983582;28;20018;-72
2023/10/09 07:23:14;;;;;;;;;;;16.10;99.90;;;;;;4985499;28;20034;-72
2023/10/09 07:25:42;;;;;;;12.63;3.20;;;16.30;99.90;;;;;;4985107;28;19964;-72
2023/10/09 07:28:36;;;;;;;13.90;2.83;;;16.40;99.90;;;;;;4989365;28;20027;-72
2023/10/09 07:31:03;;;;;;;12.75;3.05;;;16.50;99.90;;;;;;4991044;28;20532;-72
2023/10/09 07:33:56;;;;;;;14.40;3.45;;;16.60;99.90;;;;;;4987988;28;20058;-72
2023/10/09 07:36:34;;;;;;;11.52;3.65;;;16.70;99.90;;;;;;4988112;28;20050;-72
2023/10/09 07:39:12;;;;;;;15.32;3.65;;;16.50;99.90;;;;;;4986811;28;20038;-70
2023/10/09 07:41:44;;;;;;;12.32;3.55;;;16.40;99.90;;;;;;4991753;28;20381;-72
2023/10/09 07:44:34;;;;;;;10.50;3.28;;;16.20;99.90;;;;;;4992389;28;20038;-73
2023/10/09 07:47:45;;;;;;;12.73;3.72;;;16.30;99.90;;;;;;4989864;28;20030;-72
2023/10/09 07:49:53;;;;;;;13.40;3.50;;;16.40;99.90;;;;;;4986169;28;20093;-71
2023/10/09 07:52:21;;;;;;;25.50;4.13;;;16.60;99.90;;;;;;4986486;28;20062;-70
2023/10/09 07:54:52;;;;;;;12.20;2.88;;;16.80;99.90;;;;;;4987097;28;20026;-73
2023/10/09 07:57:25;;;;;;;16.50;3.30;;;16.80;99.90;;;;;;4987903;28;20046;-73
2023/10/09 08:00:00;;;;;;;13.55;3.75;;;16.70;99.90;;;;;;4985580;28;20202;-73
2023/10/09 08:02:32;;;;;;;9.75;3.30;;;16.80;99.90;;;;;;4989064;28;20586;-73
2023/10/09 08:08:17;;;;;;;62.70;6.18;;;17.00;99.90;;;;;;4972935;28;20654;-73
2023/10/09 08:13:49;;;;;;;23.95;3.85;;;17.10;99.90;;;;;;4987567;28;20476;-72
2023/10/09 08:16:21;;;;;;;12.02;3.70;;;17.20;99.90;;;;;;4984871;28;20096;-72
2023/10/09 08:18:51;;;;;;;13.55;3.00;;;17.30;99.90;;;;;;4988030;28;20061;-73
2023/10/09 08:23:49;;;;;;;12.50;4.10;;;17.50;99.90;;;;;;4988680;28;20030;-73
2023/10/09 08:26:47;;;;;;;13.70;4.00;;;17.60;99.90;;;;;;4991883;28;20085;-73
2023/10/09 08:29:17;;;;;;;18.02;3.55;;;17.70;99.90;;;;;;4991944;28;20042;-73
2023/10/09 08:31:46;;;;;;;13.93;4.35;;;17.70;99.90;;;;;;4987131;28;20038;-73
2023/10/09 08:34:24;;;;;;;16.38;4.22;;;17.70;99.90;;;;;;4985935;28;20033;-74
2023/10/09 08:36:53;;;;;;;10.52;3.05;;;17.90;99.90;;;;;;4980321;28;20166;-72
2023/10/09 08:39:25;;;;;;;13.88;2.75;;;17.90;99.70;;;;;;4984917;28;20031;-73
2023/10/09 08:41:57;;;;;;;14.98;3.80;;;18.10;99.90;;;;;;4990065;28;20018;-73
2023/10/09 08:44:26;;;;;;;16.45;4.75;;;18.10;99.30;;;;;;4987410;28;20096;-73
2023/10/09 08:46:54;;;;;;;12.60;2.90;;;18.20;99.10;;;;;;4983121;28;20030;-72
2023/10/09 08:49:21;;;;;;;12.40;3.35;;;18.30;99.30;;;;;;4983040;28;20432;-72
2023/10/09 08:51:48;;;;;;;14.77;3.33;;;18.30;99.00;;;;;;4977462;28;20037;-73
2023/10/09 08:54:14;;;;;;;18.40;3.72;;;18.30;98.90;;;;;;4990074;28;20034;-72
2023/10/09 08:56:49;;;;;;;13.63;3.65;;;18.40;98.80;;;;;;4989559;28;20042;-72
2023/10/09 08:59:18;;;;;;;11.73;3.85;;;18.50;98.60;;;;;;4989072;28;20173;-72
2023/10/09 09:01:47;;;;;;;13.48;3.47;;;18.60;99.10;;;;;;4992101;28;20034;-72
2023/10/09 09:04:38;;;;;;;23.10;4.72;;;18.70;98.70;;;;;;4991334;28;20036;-73
2023/10/09 09:07:31;;;;;;;15.85;3.38;;;18.70;98.00;;;;;;4987858;28;20057;-73
2023/10/09 09:10:04;;;;;;;17.67;3.75;;;18.80;97.80;;;;;;4986666;28;20026;-72
2023/10/09 09:12:37;;;;;;;20.42;3.58;;;18.90;98.00;;;;;;4988072;28;20633;-73
2023/10/09 09:15:04;;;;;;;16.10;4.10;;;19.00;98.00;;;;;;4991256;28;20180;-73
2023/10/09 09:17:33;;;;;;;20.38;3.92;;;19.10;97.60;;;;;;4991438;28;20175;-73
2023/10/09 09:19:59;;;;;;;13.05;3.22;;;19.10;97.40;;;;;;4988916;28;20536;-72
2023/10/09 09:22:26;;;;;;;19.05;4.30;;;19.20;97.70;;;;;;4990414;28;20138;-74
2023/10/09 09:25:03;;;;;;;16.67;5.03;;;19.40;97.30;;;;;;4990024;28;20060;-72
2023/10/09 09:27:49;;;;;;;26.38;4.97;;;19.40;98.20;;;;;;4986449;28;20114;-72
2023/10/09 09:30:32;;;;;;;12.25;3.28;;;19.60;97.50;;;;;;4986992;28;20061;-71
2023/10/09 09:33:16;;;;;;;11.50;3.10;;;19.60;97.60;;;;;;4982165;28;20366;-72
2023/10/09 09:35:57;;;;;;;11.90;3.23;;;19.70;98.40;;;;;;4984451;28;20026;-72
2023/10/09 09:38:25;;;;;;;16.75;4.25;;;19.80;97.20;;;;;;4988453;28;20050;-71
2023/10/09 09:40:53;;;;;;;15.52;3.90;;;19.80;96.80;;;;;;4980579;28;20572;-72
2023/10/09 09:43:22;;;;;;;21.45;3.63;;;20.00;97.10;;;;;;4981158;28;20488;-72
2023/10/09 09:45:51;;;;;;;17.60;3.83;;;20.00;96.70;;;;;;4987658;28;20420;-72
2023/10/09 09:48:17;;;;;;;14.20;3.20;;;20.10;97.10;;;;;;4987870;28;20026;-70
2023/10/09 09:50:45;;;;;;;16.38;4.18;;;20.10;96.50;;;;;;4980720;28;20036;-71
2023/10/09 09:53:17;;;;;;;15.93;3.30;;;20.10;96.60;;;;;;4982178;28;20041;-71
2023/10/09 09:55:59;;;;;;;16.58;3.95;;;20.20;96.20;;;;;;4983991;28;20112;-71
2023/10/09 09:58:44;;;;;;;14.07;3.53;;;20.30;96.50;;;;;;4981608;28;20042;-71
2023/10/09 10:01:24;;;;;;;20.45;4.40;;;20.40;96.10;;;;;;4981185;28;20452;-71
2023/10/09 10:03:59;;;;;;;15.18;3.65;;;20.40;97.10;;;;;;4981322;28;20039;-71
2023/10/09 10:06:28;;;;;;;19.05;4.13;;;20.50;97.20;;;;;;4981182;28;20046;-72
2023/10/09 10:08:54;;;;;;;16.52;3.53;;;20.60;97.00;;;;;;4991985;28;20034;-71
2023/10/09 10:11:44;;;;;;;13.00;3.85;;;20.70;97.20;;;;;;4980529;28;20057;-71
2023/10/09 10:14:28;;;;;;;15.80;4.20;;;20.80;97.30;;;;;;4981756;28;20034;-71
2023/10/09 10:17:22;;;;;;;15.80;4.25;;;20.80;96.40;;;;;;4981628;28;20038;-71
2023/10/09 10:22:47;;;;;;;12.18;3.35;;;20.90;95.40;;;;;;4986227;28;20690;-71
2023/10/09 10:25:41;;;;;;;16.67;3.45;;;21.40;95.30;;;;;;4988732;28;20364;-71
2023/10/09 10:28:38;;;;;;;12.25;2.70;;;21.20;96.00;;;;;;4964542;28;20678;-71
2023/10/09 10:31:07;;;;;;;12.25;3.05;;;21.30;94.90;;;;;;4986160;28;20037;-72
2023/10/09 10:33:54;;;;;;;17.15;3.47;;;21.50;95.20;;;;;;4985936;28;20026;-71
2023/10/09 10:36:26;;;;;;;11.95;3.60;;;21.80;95.50;;;;;;4987413;28;20378;-72
2023/10/09 10:39:19;;;;;;;15.43;3.35;;;21.90;94.80;;;;;;4980972;28;20050;-71
2023/10/09 10:42:00;;;;;;;14.45;3.13;;;22.10;96.30;;;;;;4974190;28;20057;-71
2023/10/09 10:44:33;;;;;;;46.05;5.57;;;22.40;95.50;;;;;;4980294;28;20037;-71
2023/10/09 10:46:59;;;;;;;17.90;4.15;;;22.40;95.10;;;;;;4985137;28;20473;-72
2023/10/09 10:49:36;;;;;;;16.98;3.55;;;22.40;94.30;;;;;;4987464;28;20060;-71
2023/10/09 10:52:35;;;;;;;17.10;4.43;;;22.60;95.40;;;;;;4984137;28;20054;-71
2023/10/09 10:55:17;;;;;;;23.42;3.78;;;22.70;95.40;;;;;;4984282;28;20112;-71
2023/10/09 10:58:02;;;;;;;24.08;4.10;;;22.80;95.30;;;;;;4986845;28;20039;-71
2023/10/09 11:01:11;;;;;;;19.10;3.60;;;22.80;94.80;;;;;;4986186;28;20047;-72
2023/10/09 11:06:35;;;;;;;15.48;3.95;;;23.00;94.50;;;;;;4987820;28;20069;-71
2023/10/09 11:09:08;;;;;;;;;;;23.00;94.70;;;;;;4988809;28;20374;-72
2023/10/09 11:11:41;;;;;;;13.05;3.15;;;23.20;95.10;;;;;;4988079;28;20272;-72
2023/10/09 11:14:23;;;;;;;14.95;4.07;;;23.10;94.20;;;;;;4987125;28;20054;-71
2023/10/09 11:16:49;;;;;;;18.27;4.50;;;23.00;94.00;;;;;;4990547;28;20034;-71
2023/10/09 11:19:32;;;;;;;10.25;3.63;;;22.90;94.20;;;;;;4986621;28;20030;-71
2023/10/09 11:24:34;;;;;;;16.65;4.97;;;23.10;94.70;;;;;;4987924;28;20042;-72
2023/10/09 11:27:07;;;;;;;18.00;3.78;;;23.30;95.10;;;;;;4992071;28;20034;-71
2023/10/09 11:32:22;;;;;;;20.65;4.05;;;23.50;94.20;;;;;;4983368;28;20077;-71
2023/10/09 11:34:52;;;;;;;18.20;3.47;;;23.50;94.80;;;;;;4984073;28;20069;-71
2023/10/09 11:37:38;;;;;;;18.58;4.20;;;23.20;93.60;;;;;;4988382;28;20034;-71
2023/10/09 11:40:21;;;;;;;13.82;3.60;;;23.00;94.80;;;;;;4987009;28;20034;-72
2023/10/09 11:42:49;;;;;;;22.52;3.65;;;23.10;94.20;;;;;;4987851;28;20026;-70
2023/10/09 11:45:24;;;;;;;18.08;3.40;;;23.30;94.90;;;;;;4986188;28;20057;-70
2023/10/09 11:48:00;;;;;;;16.92;3.53;;;23.40;95.30;;;;;;4988671;28;20053;-70
2023/10/09 11:51:18;;;;;;;18.25;3.58;;;23.30;94.90;;;;;;4984578;28;20058;-69
2023/10/09 11:53:58;;;;;;;23.10;5.00;;;22.90;95.30;;;;;;4984366;28;20042;-70
2023/10/09 11:56:26;;;;;;;17.05;4.32;;;22.70;95.30;;;;;;4985882;28;20373;-69
2023/10/09 11:58:58;;;;;;;19.90;5.00;;;22.60;95.50;;;;;;4982770;28;20069;-70
2023/10/09 12:01:25;;;;;;;19.40;4.95;;;22.50;95.90;;;;;;4983325;28;20404;-69
2023/10/09 12:03:52;;;;;;;20.63;4.65;;;22.70;96.40;;;;;;4984856;28;20030;-70
2023/10/09 12:06:19;;;;;;;18.48;3.70;;;22.90;95.50;;;;;;4982571;28;20448;-70
2023/10/09 12:08:49;;;;;;;14.35;3.95;;;23.00;96.20;;;;;;4984921;28;20022;-70
2023/10/09 12:11:22;;;;;;;17.33;4.75;;;23.30;95.50;;;;;;4985064;28;20156;-70
2023/10/09 12:13:48;;;;;;;18.52;6.25;;;23.50;95.30;;;;;;4996549;28;20057;-70
2023/10/09 12:16:15;;;;;;;17.90;4.90;;;23.60;95.20;;;;;;4984277;28;20042;-70
2023/10/09 12:18:42;;;;;;;21.15;4.43;;;23.80;94.40;;;;;;4991139;28;20488;-70
2023/10/09 12:21:15;;;;;;;16.77;4.32;;;23.80;94.30;;;;;;4983183;28;20618;-70
2023/10/09 12:23:43;;;;;;;11.87;4.00;;;24.10;94.50;;;;;;4983856;28;20099;-70
2023/10/09 12:26:14;;;;;;;18.17;3.75;;;24.30;94.90;;;;;;4984539;28;20275;-69
2023/10/09 12:28:40;;;;;;;17.88;3.58;;;24.60;94.70;;;;;;4984413;28;20054;-70
2023/10/09 12:31:06;;;;;;;11.85;3.70;;;24.40;93.90;;;;;;4992643;28;20034;-70
2023/10/09 12:33:32;;;;;;;15.98;4.25;;;24.20;93.30;;;;;;4984470;28;20032;-70
2023/10/09 12:36:01;;;;;;;13.35;3.60;;;24.40;93.40;;;;;;4985145;28;20030;-70
2023/10/09 12:38:33;;;;;;;14.65;2.97;;;24.40;93.30;;;;;;4982360;28;20069;-70
2023/10/09 12:41:18;;;;;;;12.45;3.63;;;24.70;93.80;;;;;;4986825;28;20022;-70
2023/10/09 12:43:44;;;;;;;22.88;3.65;;;25.00;93.30;;;;;;5005761;28;20034;-70
2023/10/09 12:46:09;;;;;;;21.58;4.35;;;24.90;93.00;;;;;;4990728;28;20045;-70
2023/10/09 12:48:38;;;;;;;11.93;3.90;;;25.00;93.40;;;;;;4987753;28;20037;-70
2023/10/09 12:51:06;;;;;;;21.95;4.43;;;25.20;93.20;;;;;;4987018;28;20030;-69
2023/10/09 12:53:40;;;;;;;12.80;3.40;;;25.10;92.80;;;;;;4987278;28;20026;-70
2023/10/09 12:56:07;;;;;;;17.88;4.82;;;25.10;92.70;;;;;;4969558;28;20037;-70
2023/10/09 12:58:37;;;;;;;21.33;3.35;;;25.10;92.90;;;;;;4986748;28;20034;-70
2023/10/09 13:01:09;;;;;;;15.93;4.03;;;25.20;93.00;;;;;;4986960;28;20049;-69
2023/10/09 13:03:38;;;;;;;22.25;4.65;;;25.40;92.80;;;;;;4986516;28;20184;-70
2023/10/09 13:06:10;;;;;;;16.92;3.65;;;25.10;93.10;;;;;;4986772;28;20050;-69
2023/10/09 13:08:39;;;;;;;14.82;4.68;;;25.10;93.00;;;;;;4986939;28;20497;-69
2023/10/09 13:11:12;;;;;;;16.17;3.78;;;25.10;92.90;;;;;;4987208;28;20509;-70
2023/10/09 13:13:46;;;;;;;16.50;3.55;;;25.20;92.60;;;;;;4986417;28;20026;-70
2023/10/09 13:16:23;;;;;;;17.48;3.70;;;25.10;92.50;;;;;;4986670;28;20038;-69
2023/10/09 13:18:59;;;;;;;13.27;3.72;;;25.10;92.80;;;;;;4987106;28;20062;-70
2023/10/09 13:21:34;;;;;;;21.20;4.10;;;25.30;93.90;;;;;;4986699;28;20449;-70
2023/10/09 13:24:01;;;;;;;15.68;3.95;;;25.30;93.10;;;;;;4986030;28;20102;-70
2023/10/09 13:26:29;;;;;;;9.50;3.42;;;25.10;92.70;;;;;;4986218;28;20037;-69
2023/10/09 13:28:57;;;;;;;17.13;3.70;;;25.00;93.50;;;;;;4986469;28;20026;-70
2023/10/09 13:31:27;;;;;;;29.45;4.60;;;25.00;93.60;;;;;;4986821;28;20034;-70
2023/10/09 13:33:54;;;;;;;15.57;3.72;;;25.00;93.70;;;;;;4986659;28;20026;-70
2023/10/09 13:36:27;;;;;;;20.60;4.30;;;25.00;93.70;;;;;;4987588;28;20034;-70
2023/10/09 13:38:54;;;;;;;14.13;3.20;;;25.10;93.60;;;;;;4992673;28;20061;-70
2023/10/09 13:41:20;;;;;;;13.82;4.07;;;25.00;93.10;;;;;;4987081;28;20281;-70
2023/10/09 13:43:45;;;;;;;12.52;2.92;;;25.10;93.40;;;;;;4985420;28;20052;-70
2023/10/09 13:46:11;;;;;;;13.98;4.28;;;25.10;93.60;;;;;;4985350;28;20061;-70
2023/10/09 13:48:41;;;;;;;15.75;4.15;;;25.00;92.40;;;;;;4987568;28;20037;-70
2023/10/09 13:51:23;;;;;;;17.60;3.75;;;25.00;92.30;;;;;;4984101;28;20034;-70
2023/10/09 13:53:49;;;;;;;13.70;3.85;;;25.00;91.70;;;;;;4986974;28;20026;-69
2023/10/09 13:56:19;;;;;;;18.38;3.83;;;25.00;91.80;;;;;;4989759;28;20093;-70
2023/10/09 13:58:54;;;;;;;16.05;3.13;;;24.70;91.90;;;;;;4984185;28;20461;-70
2023/10/09 14:01:32;;;;;;;23.67;4.40;;;24.30;92.10;;;;;;4984103;28;20030;-70
2023/10/09 14:03:59;;;;;;;13.88;4.18;;;24.30;91.80;;;;;;4984605;28;20120;-70
2023/10/09 14:06:32;;;;;;;14.43;4.22;;;24.30;91.90;;;;;;4987396;28;20030;-69
2023/10/09 14:09:05;;;;;;;22.52;4.00;;;24.30;92.60;;;;;;4992417;28;20030;-70
2023/10/09 14:11:39;;;;;;;16.08;3.78;;;24.10;92.70;;;;;;4985016;28;20029;-70
2023/10/09 14:14:09;;;;;;;17.02;4.38;;;24.10;92.60;;;;;;4983995;28;20037;-70
2023/10/09 14:16:42;;;;;;;11.30;2.97;;;24.00;92.50;;;;;;4984409;28;20065;-70
2023/10/09 14:19:13;;;;;;;11.73;3.38;;;23.90;93.80;;;;;;4988883;28;20066;-70
2023/10/09 14:21:40;;;;;;;13.93;3.70;;;23.80;93.70;;;;;;4984260;28;20031;-70
2023/10/09 14:24:19;;;;;;;13.70;3.40;;;23.80;93.50;;;;;;4987748;28;20034;-69
2023/10/09 14:26:45;;;;;;;17.02;4.30;;;23.60;95.40;;;;;;4986057;28;20041;-71
2023/10/09 14:29:16;;;;;;;12.55;4.32;;;23.40;96.60;;;;;;4985017;28;20029;-71
2023/10/09 14:31:42;;;;;;;15.27;3.70;;;23.20;97.10;;;;;;4984409;28;20045;-71
2023/10/09 14:34:09;;;;;;;13.75;4.25;;;23.20;97.00;;;;;;4992003;28;20018;-71
2023/10/09 14:36:35;;;;;;;17.65;3.78;;;23.10;96.50;;;;;;4989049;28;20034;-71
2023/10/09 14:39:01;;;;;;;12.35;4.03;;;23.20;96.70;;;;;;4991484;28;20044;-71
2023/10/09 14:41:27;;;;;;;14.15;3.25;;;23.20;96.70;;;;;;4987584;28;20565;-71
2023/10/09 14:43:54;;;;;;;14.63;4.03;;;23.40;95.70;;;;;;4989323;28;20031;-71
2023/10/09 14:46:27;;;;;;;14.48;3.05;;;23.50;96.60;;;;;;4992471;28;20050;-71
2023/10/09 14:48:54;;;;;;;13.30;3.33;;;23.50;96.60;;;;;;4992322;28;20026;-69
2023/10/09 14:51:29;;;;;;;12.98;3.63;;;23.50;97.70;;;;;;4994799;28;20038;-70
2023/10/09 14:54:01;;;;;;;13.73;3.47;;;23.50;97.20;;;;;;4997611;28;20038;-69
2023/10/09 14:56:31;;;;;;;15.85;3.50;;;23.60;97.00;;;;;;4989283;28;20254;-71
2023/10/09 14:58:58;;;;;;;17.50;4.00;;;23.70;96.70;;;;;;4987302;28;20034;-71
2023/10/09 15:01:28;;;;;;;15.80;3.67;;;23.90;96.50;;;;;;4987589;28;20363;-71
2023/10/09 15:04:00;;;;;;;13.40;3.45;;;24.00;95.70;;;;;;4989024;28;20137;-71
2023/10/09 15:06:33;;;;;;;17.95;4.72;;;23.90;96.80;;;;;;4986359;28;20084;-71
2023/10/09 15:09:09;;;;;;;20.88;3.92;;;23.80;97.90;;;;;;4989937;28;20029;-71
2023/10/09 15:11:38;;;;;;;14.70;4.72;;;23.70;97.20;;;;;;4996264;28;20076;-71
2023/10/09 15:14:05;;;;;;;19.17;3.45;;;23.80;96.30;;;;;;4987320;28;20073;-72
2023/10/09 15:16:32;;;;;;;18.17;4.68;;;23.80;96.30;;;;;;4990029;28;20049;-71
2023/10/09 15:18:57;;;;;;;18.45;3.85;;;23.80;97.10;;;;;;4987592;28;20963;-71
2023/10/09 15:21:26;;;;;;;13.20;3.72;;;23.80;97.40;;;;;;4988303;28;20102;-71
2023/10/09 15:23:54;;;;;;;25.25;4.72;;;23.60;97.00;;;;;;4986838;28;20083;-71
2023/10/09 15:26:21;;;;;;;23.33;5.00;;;23.60;96.70;;;;;;4985402;28;20858;-71